Terminal Aerodrome Forecast
Issued by NWS Bismarck, ND

Home | Current Version | Previous Version | Graphics & Text | Print | Product List | Glossary On
Versions: 1 2 3 4 5 6 7 8 9 10 11 12 13 14 15 16 17 18 19 20 21 22 23 24 25 26 27 28 29 30
000
FTUS43 KBIS 260021 AAA
TAFBIS
TAF AMD
KBIS 260021Z 2600/2624 05005KT P6SM VCTS OVC035CB
     FM260100 26009KT P6SM VCTS BKN070CB
     FM260300 27005KT P6SM BKN090
     FM260600 28005KT P6SM SCT200
     FM261700 27009KT P6SM SCT200
     FM262100 26009KT P6SM BKN130=

USA.gov is the U.S. government's official web portal to all federal, state and local government web resources and services.